createdAt,value
2022-12-11T00:02:37.523Z,98195.19
2022-12-11T00:06:24.921Z,98177.84
2022-12-11T00:10:07.938Z,98164.22
2022-12-11T00:13:52.856Z,98173.63
2022-12-11T00:17:15.316Z,98183.91
2022-12-11T00:20:46.980Z,98178.66
2022-12-11T00:24:09.866Z,98173.19
2022-12-11T00:27:35.256Z,98182.88
2022-12-11T00:30:55.713Z,98171.06
2022-12-11T00:34:20.552Z,98177.63
2022-12-11T00:37:31.466Z,98188.66
2022-12-11T00:40:59.319Z,98204.38
2022-12-11T00:44:24.622Z,98196.00
2022-12-11T00:47:58.009Z,98209.13
2022-12-11T00:51:20.562Z,98201.78
2022-12-11T00:55:00.469Z,98214.38
2022-12-11T00:58:45.132Z,98222.00
2022-12-11T01:02:27.988Z,98214.91
2022-12-11T01:05:40.959Z,98229.09
2022-12-11T01:09:59.504Z,98233.00
2022-12-11T01:13:22.530Z,98249.03
2022-12-11T01:17:05.856Z,98244.81
2022-12-11T01:20:28.998Z,98259.25
2022-12-11T01:24:12.084Z,98259.53
2022-12-11T01:27:18.713Z,98252.72
2022-12-11T01:30:46.749Z,98265.56
2022-12-11T01:34:08.455Z,98263.97
2022-12-11T01:37:31.833Z,98267.91
2022-12-11T01:41:14.701Z,98267.12
2022-12-11T01:44:21.576Z,98274.75
2022-12-11T01:47:44.529Z,98266.34
2022-12-11T01:51:07.617Z,98261.09
2022-12-11T01:54:51.416Z,98261.63
2022-12-11T01:58:17.862Z,98271.06
2022-12-11T02:01:45.211Z,98254.00
2022-12-11T02:04:54.816Z,98244.84
2022-12-11T02:08:34.308Z,98258.22
2022-12-11T02:12:29.300Z,98265.81
2022-12-11T02:16:24.052Z,98265.25
2022-12-11T02:20:21.759Z,98267.66
2022-12-11T02:24:10.065Z,98258.72
2022-12-11T02:27:56.683Z,98266.84
2022-12-11T02:31:26.733Z,98245.38
2022-12-11T02:35:17.281Z,98248.50
2022-12-11T02:39:02.712Z,98247.72
2022-12-11T02:43:10.436Z,98252.97
2022-12-11T02:46:54.111Z,98247.19
2022-12-11T02:50:50.433Z,98239.59
2022-12-11T02:54:38.094Z,98249.81
2022-12-11T02:58:59.558Z,98249.81
2022-12-11T03:02:51.826Z,98237.50
2022-12-11T03:06:42.485Z,98228.56
2022-12-11T03:10:25.233Z,98220.72
2022-12-11T03:14:09.038Z,98219.41
2022-12-11T03:17:59.038Z,98216.28
2022-12-11T03:22:16.178Z,98211.81
2022-12-11T03:26:05.110Z,98205.53
2022-12-11T03:30:15.351Z,98201.34
2022-12-11T03:33:43.205Z,98213.91
2022-12-11T03:37:49.210Z,98221.28
2022-12-11T03:41:35.660Z,98225.72
2022-12-11T03:45:20.858Z,98233.84
2022-12-11T03:48:36.169Z,98218.66
2022-12-11T03:52:20.794Z,98226.50
2022-12-11T03:56:06.927Z,98222.84
2022-12-11T04:00:15.709Z,98223.88
2022-12-11T04:03:47.380Z,98224.66
2022-12-11T04:07:13.805Z,98248.00
2022-12-11T04:11:34.649Z,98237.53
2022-12-11T04:15:03.060Z,98242.50
2022-12-11T04:19:25.033Z,98222.84
2022-12-11T04:23:35.933Z,98233.31
2022-12-11T04:27:50.835Z,98257.16
2022-12-11T04:31:33.617Z,98264.25
2022-12-11T04:35:17.532Z,98266.34
2022-12-11T04:39:00.216Z,98276.31
2022-12-11T04:42:43.613Z,98277.34
2022-12-11T04:46:13.472Z,98300.69
2022-12-11T04:49:36.756Z,98312.75
2022-12-11T04:52:59.629Z,98310.94
2022-12-11T04:57:02.524Z,98327.16
2022-12-11T05:00:27.272Z,98323.78
2022-12-11T05:04:10.250Z,98324.81
2022-12-11T05:07:53.008Z,98319.03
2022-12-11T05:11:56.232Z,98309.09
2022-12-11T05:15:24.137Z,98319.84
2022-12-11T05:19:27.642Z,98326.41
2022-12-11T05:23:11.974Z,98318.00
2022-12-11T05:26:40.254Z,98309.34
2022-12-11T05:30:19.831Z,98312.75
2022-12-11T05:34:06.778Z,98311.69
2022-12-11T05:37:49.258Z,98310.66
2022-12-11T05:41:06.019Z,98308.03
2022-12-11T05:44:28.720Z,98330.59
2022-12-11T05:47:36.824Z,98324.53
2022-12-11T05:51:16.163Z,98332.41
2022-12-11T05:55:15.741Z,98324.03
2022-12-11T05:58:59.849Z,98351.03
2022-12-11T06:02:57.740Z,98349.72
2022-12-11T06:07:00.590Z,98363.63
2022-12-11T06:10:50.588Z,98354.69
2022-12-11T06:14:48.689Z,98374.34
2022-12-11T06:18:32.591Z,98381.44
2022-12-11T06:22:21.542Z,98376.69
2022-12-11T06:25:55.669Z,98381.66
2022-12-11T06:33:24.631Z,98368.28
2022-12-11T06:37:11.101Z,98361.22
2022-12-11T06:40:46.597Z,98373.81
2022-12-11T06:44:30.541Z,98374.88
2022-12-11T06:48:00.701Z,98375.66
2022-12-11T06:51:44.582Z,98371.19
2022-12-11T06:54:54.016Z,98368.06
2022-12-11T06:58:25.463Z,98373.31
2022-12-11T07:01:47.543Z,98396.41
2022-12-11T07:24:10.606Z,98456.03
2022-12-11T07:27:42.177Z,98459.44
2022-12-11T07:30:45.099Z,98463.38
2022-12-11T07:33:48.305Z,98473.09
2022-12-11T07:36:51.129Z,98473.91
2022-12-11T07:39:54.264Z,98488.34
2022-12-11T07:42:56.943Z,98497.50
2022-12-11T07:46:05.626Z,98516.94
2022-12-11T07:49:08.426Z,98501.97
2022-12-11T07:52:13.695Z,98515.88
2022-12-11T07:55:25.747Z,98511.41
2022-12-11T07:58:40.272Z,98520.34
2022-12-11T08:01:43.428Z,98529.78
2022-12-11T08:04:58.378Z,98525.88
2022-12-11T08:08:05.681Z,98547.66
2022-12-11T08:11:16.831Z,98543.47
2022-12-11T08:14:25.680Z,98541.62
2022-12-11T08:17:38.367Z,98551.34
2022-12-11T08:20:51.556Z,98558.94
2022-12-11T08:23:59.074Z,98561.56
2022-12-11T08:27:06.668Z,98562.38
2022-12-11T08:30:15.895Z,98565.00
2022-12-11T08:33:28.964Z,98569.22
2022-12-11T08:36:36.109Z,98562.91
2022-12-11T08:39:48.476Z,98554.50
2022-12-11T08:43:02.593Z,98570.25
2022-12-11T08:46:17.090Z,98579.72
2022-12-11T08:49:28.623Z,98567.41
2022-12-11T08:52:43.070Z,98580.53
2022-12-11T08:55:54.446Z,98583.94
2022-12-11T08:59:06.362Z,98587.88
2022-12-11T09:02:13.536Z,98592.88
2022-12-11T09:05:20.131Z,98590.03
2022-12-11T09:08:31.344Z,98592.66
2022-12-11T09:11:51.334Z,98595.53
2022-12-11T09:14:54.607Z,98602.88
2022-12-11T09:18:07.075Z,98609.72
2022-12-11T09:21:34.080Z,98613.41
2022-12-11T09:24:46.380Z,98616.53
2022-12-11T09:27:59.945Z,98613.66
2022-12-11T09:31:13.637Z,98618.62
2022-12-11T09:34:40.748Z,98622.03
2022-12-11T09:38:03.622Z,98601.75
2022-12-11T09:41:22.925Z,98610.62
2022-12-11T09:44:31.466Z,98614.56
2022-12-11T09:47:42.714Z,98611.69
2022-12-11T09:50:54.019Z,98606.94
2022-12-11T09:54:06.813Z,98605.19
2022-12-11T09:57:24.967Z,98604.94
2022-12-11T10:01:00.189Z,98619.66
2022-12-11T10:04:45.487Z,98609.66
2022-12-11T10:08:25.680Z,98609.13
2022-12-11T10:11:40.201Z,98605.09
2022-12-11T10:15:20.917Z,98592.81
2022-12-11T10:18:31.387Z,98614.16
2022-12-11T10:21:45.548Z,98613.91
2022-12-11T10:25:11.578Z,98620.22
2022-12-11T10:28:21.355Z,98631.78
2022-12-11T10:31:43.216Z,98640.97
2022-12-11T10:35:06.926Z,98646.72
2022-12-11T10:39:19.059Z,98632.19
2022-12-11T10:42:22.972Z,98635.16
2022-12-11T10:45:30.000Z,98639.34
2022-12-11T10:48:46.081Z,98650.41
2022-12-11T10:52:01.553Z,98639.53
2022-12-11T10:55:28.373Z,98649.97
2022-12-11T10:58:50.002Z,98639.41
2022-12-11T11:01:54.836Z,98625.03
2022-12-11T11:05:27.311Z,98610.47
2022-12-11T11:08:57.270Z,98612.56
2022-12-11T11:12:27.844Z,98630.03
2022-12-11T11:16:15.580Z,98597.91
2022-12-11T11:19:38.748Z,98620.00
2022-12-11T11:22:55.320Z,98607.91
2022-12-11T11:26:19.511Z,98616.84
2022-12-11T11:30:01.377Z,98604.66
2022-12-11T11:33:59.210Z,98629.72
2022-12-11T11:37:06.043Z,98627.63
2022-12-11T11:40:28.770Z,98637.37
2022-12-11T11:43:46.634Z,98636.31
2022-12-11T11:47:13.360Z,98644.72
2022-12-11T11:50:25.822Z,98649.19
2022-12-11T11:53:37.412Z,98645.72
2022-12-11T11:56:40.149Z,98654.78
2022-12-11T11:59:57.187Z,98652.72
2022-12-11T12:03:21.578Z,98667.53
2022-12-11T12:06:55.883Z,98671.97
2022-12-11T12:10:15.060Z,98666.47
2022-12-11T12:13:49.231Z,98688.56
2022-12-11T12:17:14.309Z,98682.00
2022-12-11T12:20:48.246Z,98686.47
2022-12-11T12:24:19.512Z,98677.22
2022-12-11T12:27:53.323Z,98677.78
2022-12-11T12:31:25.895Z,98668.59
2022-12-11T12:34:29.432Z,98662.25
2022-12-11T12:38:20.070Z,98666.47
2022-12-11T12:41:52.979Z,98659.13
2022-12-11T12:45:17.260Z,98683.88
2022-12-11T12:49:02.559Z,98696.75
2022-12-11T12:52:12.312Z,98699.91
2022-12-11T12:55:24.114Z,98716.47
2022-12-11T12:59:04.143Z,98717.25
2022-12-11T13:13:12.139Z,98767.44
2022-12-11T13:24:24.113Z,98769.03
2022-12-11T13:27:46.266Z,98765.06
2022-12-11T13:31:08.153Z,98759.53
2022-12-11T13:34:55.687Z,98770.03
2022-12-11T13:38:21.313Z,98779.44
2022-12-11T13:41:47.645Z,98771.53
2022-12-11T13:45:53.166Z,98781.44
2022-12-11T13:49:43.132Z,98789.13
2022-12-11T13:53:46.424Z,98789.87
2022-12-11T13:57:00.647Z,98789.91
2022-12-11T14:00:04.460Z,98791.63
2022-12-11T14:03:34.402Z,98797.53
2022-12-11T14:06:58.862Z,98802.88
2022-12-11T14:10:25.938Z,98810.91
2022-12-11T14:13:40.555Z,98800.06
2022-12-11T14:17:23.347Z,98806.94
2022-12-11T14:20:34.128Z,98811.06
2022-12-11T14:24:19.019Z,98808.44
2022-12-11T14:27:48.891Z,98819.41
2022-12-11T14:30:59.330Z,98808.09
2022-12-11T14:34:36.483Z,98825.13
2022-12-11T14:49:29.328Z,98854.34
2022-12-11T14:53:01.410Z,98861.09
2022-12-11T14:56:07.636Z,98852.19
2022-12-11T14:59:20.491Z,98856.63
2022-12-11T15:02:27.413Z,98858.34
2022-12-11T15:05:38.888Z,98884.25
2022-12-11T15:24:37.312Z,98871.81
2022-12-11T15:27:45.382Z,98875.44
2022-12-11T15:31:00.371Z,98870.19
2022-12-11T15:34:04.735Z,98868.53
2022-12-11T15:37:31.860Z,98871.94
2022-12-11T15:40:40.086Z,98885.31
2022-12-11T15:43:47.699Z,98875.56
2022-12-11T15:46:54.493Z,98887.09
2022-12-11T15:50:00.885Z,98891.56
2022-12-11T15:53:06.063Z,98893.47
2022-12-11T15:56:15.196Z,98902.50
2022-12-11T15:59:19.162Z,98908.38
2022-12-11T16:02:24.451Z,98904.63
2022-12-11T16:05:27.853Z,98901.03
2022-12-11T16:08:30.901Z,98907.75
2022-12-11T16:11:34.378Z,98914.62
2022-12-11T16:14:39.265Z,98917.97
2022-12-11T16:17:42.380Z,98911.87
2022-12-11T16:28:18.266Z,98925.06
2022-12-11T16:31:22.261Z,98924.63
2022-12-11T16:34:27.163Z,98915.34
2022-12-11T16:37:39.194Z,98922.19
2022-12-11T16:40:42.429Z,98924.59
2022-12-11T16:44:01.173Z,98926.75
2022-12-11T16:47:09.031Z,98926.84
2022-12-11T16:50:16.116Z,98933.63
2022-12-11T16:53:19.012Z,98934.16
2022-12-11T16:56:24.957Z,98920.91
2022-12-11T16:59:37.256Z,98932.97
2022-12-11T17:02:49.302Z,98936.94
2022-12-11T17:05:52.473Z,98928.22
2022-12-11T19:27:13.041Z,99044.50
2022-12-11T19:30:16.641Z,99031.78
2022-12-11T19:33:22.010Z,99038.22
2022-12-11T19:36:26.933Z,99034.97
2022-12-11T19:39:29.762Z,99038.63
2022-12-11T19:42:45.824Z,99043.38
2022-12-11T20:50:34.543Z,99069.16
